Time;durP1;ratioP1;P1;durP2;ratioP2;P2;SDS_P1;SDS_P2;PMS_P1;PMS_P2;Temp;Humidity;BMP_temperature;BMP_pressure;BME280_temperature;BME280_humidity;BME280_pressure;Samples;Min_cycle;Max_cycle;Signal;HPM_P1;HPM_P2
2023/08/11 00:02:08;;;;;;;13.60;11.68;;;13.30;83.30;;;;;;5013993;28;20181;-89
2023/08/11 00:04:33;;;;;;;11.50;10.65;;;13.40;83.10;;;;;;5013466;28;20196;-89
2023/08/11 00:06:59;;;;;;;11.68;10.55;;;13.40;83.10;;;;;;5013402;28;20193;-90
2023/08/11 00:09:26;;;;;;;11.30;10.23;;;13.30;83.00;;;;;;5013513;28;20165;-90
2023/08/11 00:11:52;;;;;;;12.88;9.98;;;13.30;83.10;;;;;;5013849;28;20185;-89
2023/08/11 00:14:17;;;;;;;11.77;10.98;;;13.30;83.20;;;;;;5013886;28;20185;-90
2023/08/11 00:16:43;;;;;;;11.15;10.25;;;13.20;83.60;;;;;;5014306;28;20660;-89
2023/08/11 00:19:08;;;;;;;10.50;9.80;;;13.10;83.80;;;;;;5013368;28;20177;-88
2023/08/11 00:21:34;;;;;;;11.43;10.40;;;13.00;84.10;;;;;;5013353;28;20169;-88
2023/08/11 00:23:59;;;;;;;10.97;10.17;;;13.00;84.40;;;;;;5013413;28;20182;-89
2023/08/11 00:26:25;;;;;;;10.57;9.77;;;12.90;84.70;;;;;;5013575;28;20202;-88
2023/08/11 00:28:50;;;;;;;10.80;9.93;;;12.80;85.00;;;;;;5013386;28;20176;-89
2023/08/11 00:31:16;;;;;;;11.30;10.23;;;12.80;85.40;;;;;;5013522;28;20180;-88
2023/08/11 00:33:46;;;;;;;11.60;10.50;;;12.80;85.80;;;;;;4995611;28;20193;-88
2023/08/11 00:36:13;;;;;;;10.97;10.20;;;12.90;86.20;;;;;;5013346;28;20201;-88
2023/08/11 00:38:39;;;;;;;12.53;11.53;;;12.80;86.70;;;;;;5013205;28;20166;-88
2023/08/11 00:41:06;;;;;;;12.93;11.80;;;12.80;87.00;;;;;;5013564;28;20221;-88
2023/08/11 00:43:32;;;;;;;12.10;11.20;;;12.80;87.20;;;;;;4996247;28;20185;-89
2023/08/11 00:46:01;;;;;;;11.97;11.10;;;12.70;87.40;;;;;;5013102;28;20197;-88
2023/08/11 00:48:27;;;;;;;11.67;10.60;;;12.70;87.50;;;;;;5013366;28;20173;-89
2023/08/11 00:50:57;;;;;;;12.70;10.43;;;12.70;87.60;;;;;;5013716;28;20281;-88
2023/08/11 00:53:23;;;;;;;13.43;10.43;;;12.70;87.90;;;;;;5013338;28;20220;-88
2023/08/11 00:55:49;;;;;;;11.00;10.03;;;12.70;87.90;;;;;;4998448;28;20197;-88
2023/08/11 00:58:15;;;;;;;15.57;10.03;;;12.80;88.00;;;;;;5017360;28;20180;-89
2023/08/11 01:00:40;;;;;;;11.60;9.73;;;12.90;88.10;;;;;;5017021;28;20530;-88
2023/08/11 01:03:06;;;;;;;10.37;9.03;;;12.90;88.20;;;;;;5017071;28;20697;-89
2023/08/11 01:05:38;;;;;;;9.80;8.80;;;13.10;88.30;;;;;;4999008;28;20205;-89
2023/08/11 01:08:19;;;;;;;19.07;17.23;;;13.10;88.30;;;;;;5016832;28;20642;-89
2023/08/11 01:10:47;;;;;;;19.87;18.40;;;13.20;88.30;;;;;;4999273;28;20541;-89
2023/08/11 01:13:18;;;;;;;19.07;17.70;;;13.30;88.30;;;;;;5016637;28;20173;-89
2023/08/11 01:16:00;;;;;;;7.93;7.13;;;13.30;88.30;;;;;;5016480;28;20200;-89
2023/08/11 01:18:30;;;;;;;8.20;7.20;;;13.30;88.30;;;;;;5016581;28;20165;-89
2023/08/11 01:21:01;;;;;;;17.23;15.63;;;13.40;88.30;;;;;;4999020;28;20177;-88
2023/08/11 01:23:27;;;;;;;18.70;16.80;;;13.40;88.40;;;;;;5016536;28;20569;-89
2023/08/11 01:25:53;;;;;;;17.27;15.80;;;13.50;88.40;;;;;;5016308;28;20197;-89
2023/08/11 01:28:18;;;;;;;8.00;7.37;;;13.60;88.40;;;;;;5016462;28;20526;-89
2023/08/11 01:30:44;;;;;;;8.25;7.40;;;13.60;88.40;;;;;;5016376;28;20252;-89
2023/08/11 01:33:09;;;;;;;17.63;15.98;;;13.60;88.40;;;;;;5016111;28;20596;-89
2023/08/11 01:35:35;;;;;;;19.52;17.90;;;13.60;88.40;;;;;;5016172;28;20280;-89
2023/08/11 01:38:02;;;;;;;10.52;7.40;;;13.70;88.40;;;;;;5016331;28;20241;-89
2023/08/11 01:40:28;;;;;;;8.48;7.50;;;13.70;88.50;;;;;;5016143;28;20166;-89
2023/08/11 01:42:56;;;;;;;8.57;7.55;;;13.70;88.50;;;;;;5016300;28;20169;-89
2023/08/11 01:45:22;;;;;;;18.33;16.42;;;13.70;88.50;;;;;;5015927;28;20243;-89
2023/08/11 01:47:49;;;;;;;18.60;17.13;;;13.80;88.50;;;;;;5016184;28;20292;-89
2023/08/11 01:50:17;;;;;;;9.18;7.60;;;13.80;88.60;;;;;;5016141;28;20172;-89
2023/08/11 01:52:45;;;;;;;12.50;7.43;;;13.80;88.60;;;;;;5015820;28;20200;-89
2023/08/11 01:55:13;;;;;;;9.40;7.28;;;13.80;88.80;;;;;;5015785;28;20190;-89
2023/08/11 01:57:42;;;;;;;8.68;6.80;;;13.80;88.90;;;;;;5015884;28;20184;-89
2023/08/11 02:00:12;;;;;;;14.20;7.05;;;13.80;89.10;;;;;;5015742;28;20547;-89
2023/08/11 02:02:39;;;;;;;10.82;6.65;;;13.80;89.30;;;;;;5015655;28;20166;-89
2023/08/11 02:05:06;;;;;;;10.45;7.68;;;13.80;89.50;;;;;;5015732;28;20260;-89
2023/08/11 02:07:32;;;;;;;9.50;7.20;;;13.90;89.50;;;;;;5014783;28;20201;-89
2023/08/11 02:09:57;;;;;;;7.82;7.10;;;13.90;89.50;;;;;;5015885;28;20216;-89
2023/08/11 02:12:23;;;;;;;8.00;7.30;;;13.90;89.50;;;;;;5015553;28;20236;-89
2023/08/11 02:14:48;;;;;;;8.30;7.07;;;14.00;89.40;;;;;;4998011;28;20206;-89
2023/08/11 02:17:14;;;;;;;14.23;7.40;;;14.00;89.40;;;;;;5015722;28;20645;-89
2023/08/11 02:19:39;;;;;;;12.05;7.20;;;14.00;89.30;;;;;;4997887;28;20204;-89
2023/08/11 02:22:05;;;;;;;9.48;7.57;;;14.00;89.30;;;;;;5016000;28;20178;-89
2023/08/11 02:24:30;;;;;;;7.80;7.03;;;14.10;89.30;;;;;;5015276;28;20204;-89
2023/08/11 02:26:56;;;;;;;8.23;7.43;;;14.10;89.10;;;;;;5015242;28;20707;-89
2023/08/11 02:29:22;;;;;;;10.40;8.15;;;14.10;89.00;;;;;;5015219;28;20673;-89
2023/08/11 02:31:48;;;;;;;12.30;8.60;;;14.20;89.10;;;;;;5015361;28;20181;-88
2023/08/11 02:34:14;;;;;;;9.32;8.52;;;14.30;89.00;;;;;;4997549;28;20587;-89
2023/08/11 02:36:41;;;;;;;9.05;8.00;;;14.30;88.80;;;;;;5015274;28;20292;-89
2023/08/11 02:39:07;;;;;;;8.55;7.80;;;14.30;88.70;;;;;;5014949;28;20614;-89
2023/08/11 02:41:33;;;;;;;8.48;7.78;;;14.20;88.50;;;;;;5014821;28;20254;-89
2023/08/11 02:43:58;;;;;;;8.20;7.50;;;14.20;88.30;;;;;;5015287;28;20213;-89
2023/08/11 02:46:24;;;;;;;10.25;8.57;;;14.20;88.30;;;;;;5015122;28;20255;-89
2023/08/11 02:48:50;;;;;;;9.45;8.73;;;14.30;88.30;;;;;;5014902;28;20176;-89
2023/08/11 02:51:15;;;;;;;10.43;9.40;;;14.40;88.30;;;;;;5014941;28;20550;-89
2023/08/11 02:53:41;;;;;;;10.30;9.27;;;14.40;88.30;;;;;;5014947;28;20641;-89
2023/08/11 02:56:09;;;;;;;11.65;10.50;;;14.50;88.30;;;;;;5014841;28;20216;-89
2023/08/11 02:58:35;;;;;;;12.25;10.95;;;14.50;88.50;;;;;;4997093;28;20264;-89
2023/08/11 03:01:02;;;;;;;11.55;10.50;;;14.50;88.50;;;;;;5014563;28;20185;-89
2023/08/11 03:03:28;;;;;;;13.13;10.13;;;14.50;88.60;;;;;;5014703;28;20165;-89
2023/08/11 03:05:55;;;;;;;10.77;9.98;;;14.50;88.60;;;;;;5014312;28;20228;-89
2023/08/11 03:08:21;;;;;;;11.65;10.55;;;14.50;88.60;;;;;;5014417;28;20521;-89
2023/08/11 03:10:46;;;;;;;11.88;10.75;;;14.50;88.60;;;;;;5014664;28;20276;-89
2023/08/11 03:13:12;;;;;;;10.65;9.73;;;14.50;88.70;;;;;;5014525;28;20173;-89
2023/08/11 03:15:37;;;;;;;10.52;9.45;;;14.50;88.70;;;;;;5014319;28;20252;-89
2023/08/11 03:18:03;;;;;;;10.13;9.07;;;14.50;88.60;;;;;;5014623;28;20649;-89
2023/08/11 03:20:29;;;;;;;14.02;8.32;;;14.50;88.50;;;;;;5014350;28;20679;-89
2023/08/11 03:22:54;;;;;;;9.25;8.45;;;14.40;88.20;;;;;;5014290;28;20184;-89
2023/08/11 03:25:20;;;;;;;10.85;8.00;;;14.50;88.30;;;;;;5014018;28;20195;-89
2023/08/11 03:27:45;;;;;;;10.93;7.85;;;14.50;88.30;;;;;;4996724;28;20209;-89
2023/08/11 03:30:12;;;;;;;8.95;8.05;;;14.40;88.40;;;;;;5014117;28;20170;-89
2023/08/11 03:32:38;;;;;;;8.95;7.72;;;14.40;88.50;;;;;;5014105;28;20712;-89
2023/08/11 03:35:05;;;;;;;11.32;8.25;;;14.50;88.60;;;;;;5014131;28;20190;-89
2023/08/11 03:37:32;;;;;;;9.30;7.43;;;14.40;88.60;;;;;;5014132;28;20641;-89
2023/08/11 03:39:58;;;;;;;8.55;7.85;;;14.50;88.60;;;;;;5014083;28;20192;-89
2023/08/11 03:42:23;;;;;;;9.35;7.65;;;14.50;88.60;;;;;;5014182;28;20174;-89
2023/08/11 03:44:51;;;;;;;8.57;7.70;;;14.50;88.70;;;;;;5013983;28;20201;-89
2023/08/11 03:47:17;;;;;;;10.32;7.70;;;14.50;88.80;;;;;;5014224;28;20571;-89
2023/08/11 03:49:43;;;;;;;10.15;8.07;;;14.50;88.80;;;;;;5014096;28;20193;-89
2023/08/11 03:52:08;;;;;;;11.40;7.43;;;14.60;88.80;;;;;;5014333;28;20660;-89
2023/08/11 03:54:34;;;;;;;10.50;7.90;;;14.50;88.80;;;;;;5014142;28;20198;-89
2023/08/11 03:57:00;;;;;;;10.90;7.50;;;14.60;88.80;;;;;;5014001;28;20173;-89
2023/08/11 03:59:26;;;;;;;11.27;8.55;;;14.60;88.80;;;;;;5013913;28;20177;-89
2023/08/11 04:01:52;;;;;;;12.73;8.35;;;14.70;88.80;;;;;;5014552;28;20657;-89
2023/08/11 04:04:18;;;;;;;11.88;8.30;;;14.70;88.60;;;;;;5014030;28;20201;-89
2023/08/11 04:06:44;;;;;;;9.30;8.40;;;14.70;88.60;;;;;;4996259;28;20733;-89
2023/08/11 04:09:10;;;;;;;13.07;7.93;;;14.70;88.60;;;;;;5013809;28;20264;-89
2023/08/11 04:11:36;;;;;;;9.82;8.25;;;14.70;88.40;;;;;;5013935;28;20178;-89
2023/08/11 04:14:01;;;;;;;14.07;8.13;;;14.70;88.50;;;;;;5013600;28;20328;-89
2023/08/11 04:16:28;;;;;;;8.73;7.88;;;14.70;88.60;;;;;;5013685;28;20319;-89
2023/08/11 04:18:53;;;;;;;13.50;7.72;;;14.70;88.70;;;;;;5013653;28;20232;-89
2023/08/11 04:21:19;;;;;;;9.27;7.95;;;14.80;88.70;;;;;;4996066;28;20641;-89
2023/08/11 04:23:44;;;;;;;8.38;7.45;;;14.80;88.80;;;;;;4996058;28;20264;-88
2023/08/11 04:26:10;;;;;;;8.50;7.70;;;14.80;88.70;;;;;;5013264;28;20193;-89
2023/08/11 04:28:38;;;;;;;11.35;7.90;;;14.80;88.70;;;;;;5013385;28;20185;-89
2023/08/11 04:31:06;;;;;;;9.95;7.90;;;14.80;88.60;;;;;;5016841;28;20169;-89
2023/08/11 04:33:32;;;;;;;11.55;7.90;;;14.80;88.50;;;;;;5017233;28;20277;-89
2023/08/11 04:35:58;;;;;;;11.23;7.35;;;14.80;88.60;;;;;;5017214;28;20203;-89
2023/08/11 04:38:23;;;;;;;10.07;7.57;;;14.80;88.60;;;;;;5017249;28;20622;-89
2023/08/11 04:40:50;;;;;;;12.00;7.60;;;14.90;88.60;;;;;;5017486;28;20205;-90
2023/08/11 04:43:16;;;;;;;9.25;8.23;;;14.90;88.60;;;;;;5017521;28;20173;-89
2023/08/11 04:45:42;;;;;;;12.80;8.23;;;15.00;88.60;;;;;;5017027;28;20208;-89
2023/08/11 04:48:07;;;;;;;9.15;8.25;;;15.00;88.50;;;;;;5017372;28;20173;-89
2023/08/11 04:50:33;;;;;;;14.40;9.00;;;15.00;88.50;;;;;;4999503;28;20177;-89
2023/08/11 04:52:58;;;;;;;10.10;8.48;;;15.00;88.60;;;;;;5017272;28;20175;-89
2023/08/11 04:55:24;;;;;;;8.68;7.88;;;15.10;88.50;;;;;;5016858;28;20192;-89
2023/08/11 04:57:49;;;;;;;8.60;7.63;;;15.10;88.40;;;;;;5017194;28;20612;-89
2023/08/11 05:00:16;;;;;;;10.45;8.60;;;15.10;88.50;;;;;;5016890;28;20185;-89
2023/08/11 05:02:43;;;;;;;10.95;8.27;;;15.10;88.50;;;;;;5016796;28;20269;-89
2023/08/11 05:05:09;;;;;;;9.93;9.00;;;15.20;88.60;;;;;;5016673;28;20217;-89
2023/08/11 05:07:35;;;;;;;9.23;8.43;;;15.20;88.60;;;;;;5016646;28;20687;-89
2023/08/11 05:10:00;;;;;;;11.07;8.68;;;15.20;88.70;;;;;;5016745;28;20205;-89
2023/08/11 05:12:26;;;;;;;9.25;8.27;;;15.20;88.80;;;;;;5016707;28;20173;-89
2023/08/11 05:14:51;;;;;;;10.93;8.55;;;15.20;88.90;;;;;;5016526;28;20735;-89
2023/08/11 05:17:17;;;;;;;9.05;7.97;;;15.20;89.00;;;;;;5017060;28;20235;-89
2023/08/11 05:19:43;;;;;;;8.93;8.02;;;15.30;89.20;;;;;;5016763;28;20292;-89
2023/08/11 05:22:08;;;;;;;8.60;7.82;;;15.30;89.20;;;;;;5016454;28;20185;-89
2023/08/11 05:24:34;;;;;;;9.60;8.70;;;15.30;89.30;;;;;;5016670;28;20193;-89
2023/08/11 05:26:59;;;;;;;11.55;7.53;;;15.30;89.40;;;;;;5016631;28;20680;-89
2023/08/11 05:29:26;;;;;;;9.13;7.60;;;15.30;89.50;;;;;;5016353;28;20555;-89
2023/08/11 05:31:51;;;;;;;9.63;7.88;;;15.30;89.50;;;;;;5016248;28;20166;-89
2023/08/11 05:34:17;;;;;;;8.63;7.70;;;15.30;89.60;;;;;;5016478;28;20197;-89
2023/08/11 05:36:43;;;;;;;12.68;7.80;;;15.40;89.70;;;;;;5016583;28;20173;-89
2023/08/11 05:39:10;;;;;;;12.02;7.90;;;15.40;89.80;;;;;;5016691;28;20201;-89
2023/08/11 05:41:36;;;;;;;8.63;7.78;;;15.40;89.90;;;;;;5014963;28;20193;-89
2023/08/11 05:44:02;;;;;;;11.10;7.97;;;15.40;89.90;;;;;;5016050;28;20204;-89
2023/08/11 05:46:29;;;;;;;8.95;8.07;;;15.50;90.00;;;;;;5016271;28;20200;-88
2023/08/11 05:48:54;;;;;;;14.60;13.45;;;15.50;90.00;;;;;;5016998;28;20169;-89
2023/08/11 05:51:20;;;;;;;15.85;14.23;;;15.50;90.00;;;;;;5015915;28;20637;-89
2023/08/11 05:53:47;;;;;;;19.65;15.45;;;15.60;90.00;;;;;;4998186;28;20205;-89
2023/08/11 05:56:12;;;;;;;12.65;8.40;;;15.60;90.00;;;;;;5016321;28;20170;-89
2023/08/11 05:58:38;;;;;;;10.05;8.05;;;15.70;89.90;;;;;;5016444;28;20242;-89
2023/08/11 06:01:03;;;;;;;13.88;12.55;;;15.70;89.90;;;;;;5015974;28;20178;-89
2023/08/11 06:03:30;;;;;;;15.13;13.52;;;15.70;89.90;;;;;;5015982;28;20181;-89
2023/08/11 06:06:06;;;;;;;15.70;14.20;;;15.80;89.90;;;;;;5015622;28;20303;-89
2023/08/11 06:08:31;;;;;;;8.93;8.07;;;15.80;89.90;;;;;;5015512;28;20180;-89
2023/08/11 06:10:57;;;;;;;8.52;7.82;;;15.80;89.70;;;;;;5015484;28;20177;-89
2023/08/11 06:13:23;;;;;;;15.15;13.60;;;15.80;89.70;;;;;;5015789;28;20177;-89
2023/08/11 06:15:49;;;;;;;14.77;13.45;;;15.90;89.60;;;;;;5015417;28;20190;-89
2023/08/11 06:18:15;;;;;;;12.82;11.57;;;15.90;89.60;;;;;;5015401;28;20646;-89
2023/08/11 06:20:41;;;;;;;9.10;8.30;;;16.00;89.50;;;;;;5015367;28;20184;-89
2023/08/11 06:23:07;;;;;;;8.88;7.97;;;16.00;89.40;;;;;;5015424;28;20268;-89
2023/08/11 06:25:33;;;;;;;14.27;12.80;;;16.00;89.30;;;;;;5015259;28;20606;-89
2023/08/11 06:27:58;;;;;;;15.10;13.48;;;16.10;89.20;;;;;;4997744;28;20208;-90
2023/08/11 06:30:24;;;;;;;10.13;8.38;;;16.10;89.20;;;;;;5015410;28;20180;-89
2023/08/11 06:32:49;;;;;;;9.05;8.15;;;16.20;89.10;;;;;;5015057;28;20194;-89
2023/08/11 06:35:15;;;;;;;8.48;7.75;;;16.20;89.10;;;;;;5015033;28;20684;-89
2023/08/11 06:37:40;;;;;;;9.48;7.65;;;16.20;89.10;;;;;;5015138;28;20601;-89
2023/08/11 06:40:07;;;;;;;8.88;8.05;;;16.20;89.10;;;;;;5015047;28;20581;-89
2023/08/11 06:42:33;;;;;;;9.38;8.30;;;16.20;89.00;;;;;;5015253;28;20543;-89
2023/08/11 06:44:58;;;;;;;10.48;8.20;;;16.20;88.80;;;;;;5015107;28;20208;-89
2023/08/11 06:47:24;;;;;;;12.75;8.85;;;16.30;88.80;;;;;;5015138;28;20205;-89
2023/08/11 06:49:50;;;;;;;8.90;8.15;;;16.30;88.70;;;;;;5014881;28;20169;-89
2023/08/11 06:52:15;;;;;;;11.45;8.38;;;16.40;88.80;;;;;;4996989;28;20193;-90
2023/08/11 06:54:41;;;;;;;12.25;8.25;;;16.40;88.90;;;;;;5014817;28;20213;-89
2023/08/11 06:57:06;;;;;;;11.60;8.77;;;16.50;88.80;;;;;;5014791;28;20173;-89
2023/08/11 06:59:32;;;;;;;12.95;8.70;;;16.50;88.80;;;;;;5015569;28;20252;-89
2023/08/11 07:01:57;;;;;;;9.63;8.48;;;16.50;88.80;;;;;;5014581;28;20605;-89
2023/08/11 07:04:23;;;;;;;9.77;8.73;;;16.60;88.80;;;;;;5014842;28;20194;-89
2023/08/11 07:06:49;;;;;;;9.10;8.20;;;16.60;88.70;;;;;;5014311;28;20201;-89
2023/08/11 07:09:14;;;;;;;14.93;10.35;;;16.60;88.70;;;;;;5014421;28;20652;-89
2023/08/11 07:11:40;;;;;;;9.75;8.57;;;16.70;88.60;;;;;;5014570;28;20169;-89
2023/08/11 07:14:05;;;;;;;11.35;9.38;;;16.70;88.60;;;;;;5014525;28;20193;-89
2023/08/11 07:16:31;;;;;;;16.80;9.10;;;16.80;88.50;;;;;;5014221;28;20178;-90
2023/08/11 07:18:57;;;;;;;11.90;9.05;;;16.80;88.50;;;;;;5014332;28;20192;-90
2023/08/11 07:21:22;;;;;;;10.77;9.50;;;16.80;88.40;;;;;;5014375;28;20637;-90
2023/08/11 07:23:48;;;;;;;10.35;9.35;;;16.80;88.40;;;;;;5014822;28;20536;-89
2023/08/11 07:26:13;;;;;;;14.63;9.75;;;16.90;88.40;;;;;;4996567;28;20287;-88
2023/08/11 07:28:40;;;;;;;11.20;9.77;;;17.00;88.40;;;;;;5014736;28;20719;-89
2023/08/11 07:31:06;;;;;;;13.63;10.73;;;17.00;88.40;;;;;;5014278;28;20161;-89
2023/08/11 07:33:31;;;;;;;12.02;10.73;;;17.10;88.40;;;;;;5014009;28;20192;-90
2023/08/11 07:35:57;;;;;;;13.10;11.63;;;17.20;88.50;;;;;;5014054;28;20276;-89
2023/08/11 07:38:22;;;;;;;11.95;10.82;;;17.20;88.50;;;;;;5014263;28;20166;-89
2023/08/11 07:40:48;;;;;;;11.98;10.40;;;17.30;88.50;;;;;;5013932;28;20645;-89
2023/08/11 07:43:14;;;;;;;12.35;11.05;;;17.20;88.10;;;;;;5014242;28;20205;-90
2023/08/11 07:45:40;;;;;;;12.88;11.85;;;17.30;87.90;;;;;;5013755;28;20200;-89
2023/08/11 07:48:06;;;;;;;12.70;11.50;;;17.40;88.00;;;;;;5014243;28;20173;-89
2023/08/11 07:50:32;;;;;;;13.93;11.80;;;17.50;87.80;;;;;;5013898;28;20197;-90
2023/08/11 07:52:58;;;;;;;12.63;11.50;;;17.50;87.20;;;;;;5013773;28;20172;-90
2023/08/11 07:55:23;;;;;;;13.45;12.13;;;17.60;87.00;;;;;;5013696;28;20633;-89
2023/08/11 07:57:49;;;;;;;13.20;11.82;;;17.70;86.80;;;;;;5013973;28;20231;-89
2023/08/11 08:00:16;;;;;;;13.27;11.77;;;17.70;86.50;;;;;;5013603;28;20219;-89
2023/08/11 08:02:45;;;;;;;14.80;11.93;;;17.80;86.50;;;;;;5013661;28;20165;-90
2023/08/11 08:05:11;;;;;;;15.57;12.20;;;17.80;86.20;;;;;;5012952;28;20244;-89
2023/08/11 08:07:37;;;;;;;13.43;12.13;;;17.90;86.30;;;;;;5013783;28;20248;-90
2023/08/11 08:10:08;;;;;;;14.07;12.88;;;17.90;86.10;;;;;;5013800;28;20169;-91
2023/08/11 08:12:37;;;;;;;15.25;12.48;;;18.00;86.00;;;;;;5014278;28;20211;-91
2023/08/11 08:15:05;;;;;;;12.98;11.75;;;18.00;85.40;;;;;;5013863;28;20181;-90
2023/08/11 08:17:31;;;;;;;15.60;12.43;;;18.10;85.50;;;;;;5013555;28;20173;-91
2023/08/11 08:19:57;;;;;;;14.52;13.02;;;18.20;85.30;;;;;;5013714;28;20169;-91
2023/08/11 08:22:22;;;;;;;16.30;13.68;;;18.20;85.40;;;;;;5013612;28;20208;-91
2023/08/11 08:24:48;;;;;;;13.80;12.63;;;18.30;85.10;;;;;;5013868;28;20688;-91
2023/08/11 08:27:15;;;;;;;14.90;13.48;;;18.30;84.70;;;;;;5013886;28;20197;-91
2023/08/11 08:29:40;;;;;;;20.73;15.50;;;18.40;84.70;;;;;;5014151;28;20671;-91
2023/08/11 08:32:06;;;;;;;20.63;16.17;;;18.50;84.30;;;;;;5013711;28;22020;-91
2023/08/11 08:34:32;;;;;;;16.00;14.18;;;18.60;84.60;;;;;;4996375;28;20197;-91
2023/08/11 08:36:57;;;;;;;21.65;16.63;;;18.70;84.30;;;;;;5013943;28;20185;-91
2023/08/11 08:39:23;;;;;;;15.80;13.35;;;18.80;84.10;;;;;;5013619;28;20303;-91
2023/08/11 08:41:50;;;;;;;21.08;14.38;;;18.90;84.30;;;;;;5013563;28;20227;-91
2023/08/11 08:44:17;;;;;;;15.43;13.88;;;18.90;84.00;;;;;;5013897;28;20197;-91
2023/08/11 08:46:44;;;;;;;17.30;13.02;;;19.00;83.70;;;;;;5014085;28;20189;-91
2023/08/11 08:49:26;;;;;;;15.18;13.63;;;19.10;83.50;;;;;;5013780;28;20173;-91
2023/08/11 08:51:56;;;;;;;22.08;14.75;;;19.10;82.60;;;;;;5013669;28;20158;-91
2023/08/11 08:54:22;;;;;;;20.92;15.25;;;19.10;81.60;;;;;;5013795;28;20193;-91
2023/08/11 08:56:51;;;;;;;16.27;14.40;;;19.20;82.00;;;;;;5013875;28;20705;-91
2023/08/11 08:59:16;;;;;;;17.30;13.45;;;19.20;81.50;;;;;;5014155;28;20174;-91
2023/08/11 09:01:42;;;;;;;14.77;13.63;;;19.30;82.20;;;;;;5013414;28;20185;-91
2023/08/11 09:04:08;;;;;;;15.75;14.55;;;19.50;81.90;;;;;;5013671;28;20225;-91
2023/08/11 09:06:35;;;;;;;19.42;15.90;;;19.40;80.70;;;;;;5013724;28;20201;-91
2023/08/11 09:09:01;;;;;;;15.93;14.35;;;19.50;81.30;;;;;;5014045;28;20174;-90
2023/08/11 09:11:27;;;;;;;15.70;14.25;;;19.60;80.70;;;;;;5014274;28;20166;-92
2023/08/11 09:13:53;;;;;;;15.13;13.65;;;19.70;80.70;;;;;;5013772;28;20181;-91
2023/08/11 09:16:23;;;;;;;14.80;13.15;;;19.70;80.20;;;;;;4997998;28;20712;-91
2023/08/11 09:18:49;;;;;;;15.30;14.00;;;19.70;80.20;;;;;;5017188;28;20584;-91
2023/08/11 09:21:16;;;;;;;15.63;13.63;;;19.80;79.90;;;;;;5000602;28;20177;-91
2023/08/11 09:23:45;;;;;;;14.70;13.32;;;19.90;79.70;;;;;;5001295;28;20178;-91
2023/08/11 09:26:11;;;;;;;15.65;14.00;;;19.90;80.00;;;;;;5000347;28;20204;-91
2023/08/11 09:28:36;;;;;;;14.90;13.52;;;20.00;79.80;;;;;;5016959;28;20181;-91
2023/08/11 09:31:03;;;;;;;13.93;12.80;;;20.00;79.50;;;;;;5018036;28;20575;-92
2023/08/11 09:33:30;;;;;;;20.65;18.88;;;20.20;79.90;;;;;;5018839;28;20281;-91
2023/08/11 09:35:56;;;;;;;14.68;12.52;;;20.20;79.40;;;;;;5018879;28;20583;-92
2023/08/11 09:38:25;;;;;;;15.93;14.52;;;20.40;80.00;;;;;;5017944;28;20166;-92
2023/08/11 09:40:50;;;;;;;15.38;13.90;;;20.50;79.00;;;;;;5020165;28;20179;-92
2023/08/11 09:43:16;;;;;;;16.08;14.32;;;20.50;78.90;;;;;;5021222;28;20696;-92
2023/08/11 09:45:42;;;;;;;15.60;14.30;;;20.70;79.50;;;;;;5025004;28;20193;-92
2023/08/11 09:48:08;;;;;;;16.83;14.65;;;20.60;77.80;;;;;;5023065;28;20208;-92
2023/08/11 09:50:35;;;;;;;16.40;14.52;;;20.70;78.00;;;;;;5023236;28;20176;-92
2023/08/11 09:53:05;;;;;;;15.73;14.32;;;20.80;77.80;;;;;;5020179;28;20649;-91
2023/08/11 09:55:32;;;;;;;16.08;14.52;;;20.90;77.30;;;;;;5016957;28;20209;-91
2023/08/11 09:58:01;;;;;;;14.85;13.50;;;21.00;77.50;;;;;;5017289;28;20181;-91
2023/08/11 10:00:30;;;;;;;15.15;13.85;;;21.30;78.10;;;;;;5017628;28;20528;-91
2023/08/11 10:03:05;;;;;;;16.05;14.75;;;21.40;76.90;;;;;;5018298;28;20173;-92
2023/08/11 10:05:35;;;;;;;17.65;16.05;;;21.60;76.00;;;;;;5018670;28;20688;-92
2023/08/11 10:08:05;;;;;;;16.10;14.80;;;21.40;75.10;;;;;;5019557;28;20185;-93
2023/08/11 10:10:32;;;;;;;17.33;15.82;;;21.70;75.60;;;;;;5021344;28;20178;-91
2023/08/11 10:13:07;;;;;;;14.90;13.80;;;21.70;74.40;;;;;;5019840;28;20296;-92
2023/08/11 10:15:33;;;;;;;15.93;14.63;;;21.80;74.60;;;;;;5023871;28;20224;-92
2023/08/11 10:18:01;;;;;;;18.15;16.73;;;22.00;73.40;;;;;;4998821;28;20185;-92
2023/08/11 10:20:26;;;;;;;17.42;15.77;;;22.00;74.00;;;;;;5027880;28;20201;-91
2023/08/11 10:22:52;;;;;;;17.77;16.30;;;22.20;73.60;;;;;;5025508;28;20185;-91
2023/08/11 10:25:18;;;;;;;18.38;16.70;;;22.20;73.40;;;;;;5026450;28;20216;-92
2023/08/11 10:27:44;;;;;;;19.20;17.45;;;22.40;72.70;;;;;;5010602;28;20772;-92
2023/08/11 10:30:13;;;;;;;17.52;16.08;;;22.40;71.10;;;;;;5015120;28;20177;-93
2023/08/11 10:32:38;;;;;;;17.77;16.48;;;22.40;72.90;;;;;;5013959;28;20177;-92
2023/08/11 10:35:13;;;;;;;18.02;16.38;;;22.50;72.30;;;;;;5038707;28;20205;-91
2023/08/11 10:37:39;;;;;;;17.65;16.25;;;22.60;72.90;;;;;;5036403;28;20157;-91
2023/08/11 10:40:12;;;;;;;16.35;14.95;;;22.60;72.30;;;;;;4999744;28;20181;-91
2023/08/11 10:42:39;;;;;;;16.52;15.43;;;22.80;71.90;;;;;;5017743;28;20189;-90
2023/08/11 10:45:12;;;;;;;16.50;15.30;;;22.90;71.70;;;;;;5016214;28;20186;-91
2023/08/11 10:47:44;;;;;;;17.20;15.90;;;22.90;71.50;;;;;;5016577;28;20672;-91
2023/08/11 10:50:12;;;;;;;18.15;16.77;;;23.00;70.40;;;;;;5016486;28;20252;-90
2023/08/11 10:52:40;;;;;;;18.85;17.35;;;23.00;70.30;;;;;;5016005;28;20170;-90
2023/08/11 10:55:07;;;;;;;19.77;18.30;;;23.20;69.80;;;;;;5016688;28;20201;-91
2023/08/11 10:57:34;;;;;;;18.35;16.85;;;23.00;69.40;;;;;;5016013;28;20261;-91
2023/08/11 10:59:59;;;;;;;17.65;16.38;;;22.90;69.60;;;;;;5015865;28;20173;-90
2023/08/11 11:02:25;;;;;;;18.27;16.95;;;23.30;68.00;;;;;;5016060;28;20261;-90
2023/08/11 11:04:52;;;;;;;18.40;17.10;;;23.50;68.00;;;;;;5016522;28;20248;-90
2023/08/11 11:07:22;;;;;;;19.38;17.50;;;23.40;67.40;;;;;;5016180;28;20204;-90
2023/08/11 11:09:47;;;;;;;18.50;17.20;;;23.30;67.60;;;;;;5015501;28;20196;-91
2023/08/11 11:12:14;;;;;;;18.50;17.20;;;23.40;67.90;;;;;;5016278;28;20650;-91
2023/08/11 11:14:39;;;;;;;18.38;17.08;;;23.50;67.50;;;;;;4998482;28;20189;-91
2023/08/11 11:17:06;;;;;;;18.83;17.50;;;23.20;67.20;;;;;;5016566;28;20176;-91
2023/08/11 11:19:31;;;;;;;19.05;17.77;;;23.40;67.50;;;;;;5016223;28;20169;-90
2023/08/11 11:21:59;;;;;;;18.45;17.05;;;23.30;66.30;;;;;;5015688;28;20180;-90
2023/08/11 11:24:25;;;;;;;17.92;16.73;;;23.40;67.90;;;;;;5015678;28;20212;-91
2023/08/11 11:26:52;;;;;;;18.80;17.50;;;23.50;68.60;;;;;;5015467;28;20193;-91
2023/08/11 11:29:23;;;;;;;20.13;18.55;;;23.30;65.60;;;;;;5017922;28;20193;-91
2023/08/11 11:32:06;;;;;;;19.55;18.15;;;23.40;67.80;;;;;;5018340;28;20149;-91
2023/08/11 11:34:35;;;;;;;18.98;17.58;;;23.50;67.20;;;;;;5001903;28;20588;-90
2023/08/11 11:37:01;;;;;;;18.65;17.45;;;23.60;67.40;;;;;;5016481;28;20177;-91
2023/08/11 11:39:27;;;;;;;24.88;23.17;;;23.60;66.10;;;;;;5014919;28;20188;-91
2023/08/11 11:41:52;;;;;;;27.80;25.98;;;23.70;67.30;;;;;;5015118;28;20169;-90
2023/08/11 11:44:18;;;;;;;26.77;24.83;;;23.90;67.20;;;;;;5015795;28;20193;-90
2023/08/11 11:46:44;;;;;;;28.05;26.08;;;23.70;63.40;;;;;;4999414;28;20204;-91
2023/08/11 11:49:14;;;;;;;20.52;19.13;;;23.90;62.60;;;;;;5019894;28;20252;-89
2023/08/11 11:51:39;;;;;;;20.25;18.98;;;23.90;63.70;;;;;;5017034;28;20169;-91
2023/08/11 11:54:05;;;;;;;26.60;24.85;;;24.20;63.50;;;;;;5014940;28;20661;-91
2023/08/11 11:56:31;;;;;;;27.17;25.38;;;24.10;64.00;;;;;;5015527;28;20169;-91
2023/08/11 11:58:57;;;;;;;27.95;25.95;;;24.20;62.90;;;;;;5016371;28;20169;-90
2023/08/11 12:01:25;;;;;;;17.98;16.40;;;24.20;62.10;;;;;;5016049;28;20252;-91
2023/08/11 12:03:53;;;;;;;19.30;18.00;;;24.20;63.30;;;;;;4997920;28;20263;-91
2023/08/11 12:06:19;;;;;;;24.23;22.73;;;24.20;62.20;;;;;;5016566;28;20224;-90
2023/08/11 12:08:48;;;;;;;26.38;24.58;;;24.20;64.00;;;;;;5000457;28;20548;-90
2023/08/11 12:11:16;;;;;;;24.05;22.48;;;24.20;63.40;;;;;;5017289;28;20668;-91
2023/08/11 12:13:44;;;;;;;18.70;17.50;;;24.00;63.80;;;;;;5018487;28;20245;-90
2023/08/11 12:16:12;;;;;;;19.00;17.60;;;23.90;63.40;;;;;;5016929;28;20177;-91
2023/08/11 12:18:39;;;;;;;19.80;18.13;;;24.20;64.60;;;;;;5025722;28;20227;-92
2023/08/11 12:21:06;;;;;;;19.33;18.13;;;24.70;64.40;;;;;;5010390;28;20204;-92
2023/08/11 12:23:32;;;;;;;19.05;17.85;;;24.90;61.20;;;;;;5011119;28;20224;-92
2023/08/11 12:25:58;;;;;;;19.90;18.60;;;24.90;61.60;;;;;;5029060;28;20193;-92
2023/08/11 12:28:25;;;;;;;20.17;18.88;;;25.30;63.40;;;;;;5019481;28;20256;-91
2023/08/11 12:30:50;;;;;;;19.05;17.85;;;25.40;63.10;;;;;;5019166;28;20185;-92